Time;durP1;ratioP1;P1;durP2;ratioP2;P2;SDS_P1;SDS_P2;PMS_P1;PMS_P2;Temp;Humidity;BMP_temperature;BMP_pressure;BME280_temperature;BME280_humidity;BME280_pressure;Samples;Min_cycle;Max_cycle;Signal;HPM_P1;HPM_P2
2022/03/23 00:02:26;;;;;;;90.40;46.30;;;;;;;5.89;43.76;100753.94;233173;1219;140007;-59
2022/03/23 00:07:29;;;;;;;90.90;46.00;;;;;;;5.79;44.04;100750.40;233343;1219;140386;-58
2022/03/23 00:12:32;;;;;;;88.10;47.60;;;;;;;5.73;44.12;100753.83;231824;1217;139188;-58
2022/03/23 00:17:35;;;;;;;83.00;44.90;;;;;;;5.64;43.98;100751.49;233270;1217;139653;-57
2022/03/23 00:22:38;;;;;;;82.50;44.00;;;;;;;5.60;44.08;100747.14;232988;1217;139146;-57
2022/03/23 00:27:41;;;;;;;86.40;44.00;;;;;;;5.58;44.10;100743.13;233288;1217;138814;-58
2022/03/23 00:32:44;;;;;;;80.70;42.70;;;;;;;5.57;44.26;100737.51;233273;1217;138780;-58
2022/03/23 00:37:47;;;;;;;84.60;44.40;;;;;;;5.51;44.58;100731.43;233106;1217;139038;-57
2022/03/23 00:42:51;;;;;;;84.00;43.90;;;;;;;5.46;44.63;100729.91;233350;1217;139312;-58
2022/03/23 00:47:54;;;;;;;80.90;41.70;;;;;;;5.45;44.80;100725.88;233280;1217;139144;-58
2022/03/23 00:52:57;;;;;;;85.30;42.90;;;;;;;5.41;45.00;100718.73;233230;1217;139053;-58
2022/03/23 00:58:01;;;;;;;85.50;42.90;;;;;;;5.35;45.27;100717.04;233430;1217;139964;-62
2022/03/23 01:03:04;;;;;;;89.30;43.40;;;;;;;5.32;45.33;100713.58;233093;1217;139023;-60
2022/03/23 01:08:09;;;;;;;91.60;44.30;;;;;;;5.25;45.33;100707.85;233174;1217;139160;-59
2022/03/23 01:13:15;;;;;;;95.90;44.90;;;;;;;5.16;45.30;100704.45;233359;1219;139728;-60
2022/03/23 01:18:18;;;;;;;88.90;44.10;;;;;;;5.06;45.56;100705.48;232946;1218;141634;-58
2022/03/23 01:23:21;;;;;;;85.20;43.20;;;;;;;4.92;45.42;100703.87;233328;1217;139279;-58
2022/03/23 01:28:24;;;;;;;88.80;44.10;;;;;;;4.78;45.44;100699.98;233268;1217;140192;-58
2022/03/23 01:33:28;;;;;;;83.70;42.50;;;;;;;4.69;45.54;100700.80;233233;1217;140761;-58
2022/03/23 01:38:31;;;;;;;80.20;41.40;;;;;;;4.59;45.75;100696.15;233256;1217;139414;-58
2022/03/23 01:43:34;;;;;;;82.20;40.90;;;;;;;4.52;46.08;100692.90;233351;1217;139054;-60
2022/03/23 01:48:38;;;;;;;76.10;39.80;;;;;;;4.41;46.16;100685.98;233283;1217;139322;-56
2022/03/23 01:53:41;;;;;;;70.20;38.40;;;;;;;4.33;46.20;100685.02;233261;1217;139159;-57
2022/03/23 01:58:44;;;;;;;79.10;39.60;;;;;;;4.26;46.55;100682.98;233204;1217;139110;-60
2022/03/23 02:03:48;;;;;;;72.60;37.80;;;;;;;4.24;46.50;100678.25;233137;1217;139832;-58
2022/03/23 02:08:52;;;;;;;78.70;39.10;;;;;;;4.26;46.57;100675.77;233111;1217;139414;-57
2022/03/23 02:13:55;;;;;;;69.40;37.00;;;;;;;4.25;46.54;100679.13;233202;1217;139589;-59
2022/03/23 02:18:58;;;;;;;72.90;38.30;;;;;;;4.22;46.85;100676.69;233252;1217;139198;-57
2022/03/23 02:24:03;;;;;;;74.80;38.90;;;;;;;4.21;47.07;100678.46;233274;1217;138994;-57
2022/03/23 02:29:07;;;;;;;73.70;38.20;;;;;;;4.19;46.98;100673.21;232871;1217;140327;-60
2022/03/23 02:34:10;;;;;;;68.30;38.80;;;;;;;4.16;47.08;100671.48;233346;1217;139976;-58
2022/03/23 02:39:13;;;;;;;69.00;36.50;;;;;;;4.09;47.17;100669.27;233249;1217;139390;-60
2022/03/23 02:44:17;;;;;;;69.60;37.20;;;;;;;3.98;47.28;100664.79;233260;1217;140039;-58
2022/03/23 02:49:20;;;;;;;72.10;37.90;;;;;;;3.88;47.44;100664.55;233281;1217;139249;-58
2022/03/23 03:05:39;;;;;;;76.00;36.10;;;;;;;3.65;47.69;100657.18;232990;1217;139356;-58
2022/03/23 03:10:42;;;;;;;71.00;37.00;;;;;;;3.57;47.76;100649.14;233273;1218;139648;-58
2022/03/23 03:15:45;;;;;;;70.80;37.30;;;;;;;3.58;48.04;100648.11;233023;1217;139348;-60
2022/03/23 03:20:48;;;;;;;73.00;36.50;;;;;;;3.57;47.77;100650.56;233327;1217;139507;-59
2022/03/23 03:25:52;;;;;;;74.60;38.40;;;;;;;3.53;47.82;100658.67;233074;1217;138939;-60
2022/03/23 03:30:58;;;;;;;75.50;35.10;;;;;;;3.53;47.82;100659.37;232298;1217;138755;-59
2022/03/23 03:36:01;;;;;;;70.40;35.50;;;;;;;3.47;47.97;100656.43;233139;1217;139019;-62
2022/03/23 03:41:05;;;;;;;83.50;37.40;;;;;;;3.38;48.11;100650.52;233041;1219;141789;-62
2022/03/23 03:46:10;;;;;;;66.70;34.60;;;;;;;3.33;48.34;100645.64;233160;1217;139743;-60
2022/03/23 03:51:13;;;;;;;75.50;35.40;;;;;;;3.28;48.26;100643.40;233243;1217;139082;-57
2022/03/23 03:56:16;;;;;;;69.50;35.20;;;;;;;3.23;48.42;100635.71;233277;1217;138975;-56
2022/03/23 04:01:20;;;;;;;75.70;36.30;;;;;;;3.18;48.49;100641.36;233186;1217;139264;-57
2022/03/23 04:06:24;;;;;;;75.50;35.00;;;;;;;3.17;48.63;100646.09;233224;1217;139236;-58
2022/03/23 04:11:28;;;;;;;83.10;35.20;;;;;;;3.15;48.75;100649.96;233207;1217;140799;-56
2022/03/23 04:16:31;;;;;;;73.30;36.50;;;;;;;3.10;48.75;100651.05;232771;1217;138920;-56
2022/03/23 04:21:35;;;;;;;75.10;35.70;;;;;;;3.08;48.96;100651.58;233117;1217;138708;-58
2022/03/23 04:26:38;;;;;;;73.10;34.30;;;;;;;3.13;49.16;100656.47;233167;1217;138834;-57
2022/03/23 04:31:41;;;;;;;69.80;34.40;;;;;;;3.10;49.23;100654.55;233225;1217;139944;-58
2022/03/23 04:36:44;;;;;;;74.50;35.30;;;;;;;3.05;49.31;100652.48;233335;1217;140159;-58
2022/03/23 04:41:47;;;;;;;72.60;34.60;;;;;;;2.97;49.27;100650.76;233258;1217;139204;-58
2022/03/23 04:46:50;;;;;;;73.20;35.30;;;;;;;2.92;49.38;100645.17;233207;1217;139146;-58
2022/03/23 04:51:53;;;;;;;72.90;35.50;;;;;;;2.86;49.39;100643.27;233327;1217;138897;-58
2022/03/23 04:56:56;;;;;;;73.30;35.20;;;;;;;2.78;49.40;100639.98;233203;1217;141594;-59
2022/03/23 05:01:59;;;;;;;68.70;35.10;;;;;;;2.68;49.40;100634.09;233000;1217;139096;-59
2022/03/23 05:07:03;;;;;;;61.30;33.20;;;;;;;2.63;49.49;100630.07;233238;1217;140829;-57
2022/03/23 05:12:06;;;;;;;66.50;33.10;;;;;;;2.59;49.66;100633.75;233221;1217;141111;-59
2022/03/23 05:17:09;;;;;;;74.00;35.90;;;;;;;2.58;49.79;100637.08;233196;1218;140097;-57
2022/03/23 05:22:12;;;;;;;75.60;35.60;;;;;;;2.64;49.98;100638.48;233362;1218;139342;-59
2022/03/23 05:27:15;;;;;;;70.30;34.90;;;;;;;2.71;49.96;100637.22;233201;1218;140403;-59
2022/03/23 05:32:18;;;;;;;73.50;33.60;;;;;;;2.73;50.16;100633.35;233347;1217;139775;-59
2022/03/23 05:37:22;;;;;;;66.40;34.00;;;;;;;2.77;50.27;100635.25;233193;1217;139046;-58
2022/03/23 05:42:25;;;;;;;67.90;35.20;;;;;;;2.82;50.36;100633.84;233213;1217;140023;-58
2022/03/23 05:47:28;;;;;;;73.60;35.30;;;;;;;2.88;50.47;100634.33;233221;1217;139259;-58
2022/03/23 05:52:31;;;;;;;66.90;33.60;;;;;;;2.96;50.60;100627.45;233351;1217;139151;-60
2022/03/23 05:57:35;;;;;;;69.60;34.50;;;;;;;3.04;50.73;100623.90;233266;1217;139846;-62
2022/03/23 06:02:40;;;;;;;61.50;33.40;;;;;;;3.14;50.79;100617.89;233155;1218;141099;-59
2022/03/23 06:07:44;;;;;;;;;;;;;;;3.25;50.94;100612.02;233086;1219;139770;-58
2022/03/23 06:12:47;;;;;;;63.20;34.70;;;;;;;3.36;50.79;100616.14;233257;1217;125880;-59
2022/03/23 06:17:50;;;;;;;62.90;32.90;;;;;;;3.53;50.90;100616.20;233370;1217;139441;-60
2022/03/23 06:22:54;;;;;;;66.80;34.60;;;;;;;3.69;50.92;100611.51;233253;1217;142306;-58
2022/03/23 06:27:57;;;;;;;65.30;35.00;;;;;;;3.85;50.87;100604.69;233308;1217;138916;-59
2022/03/23 06:33:00;;;;;;;69.20;36.00;;;;;;;4.04;51.00;100612.75;233237;1217;139212;-59
2022/03/23 06:38:04;;;;;;;63.90;35.70;;;;;;;4.25;51.28;100621.50;233301;1217;139604;-57
2022/03/23 06:43:07;;;;;;;70.60;36.10;;;;;;;4.49;51.04;100622.98;233276;1217;138710;-58
2022/03/23 06:48:10;;;;;;;69.00;36.00;;;;;;;4.72;50.93;100622.01;233245;1217;139455;-58
2022/03/23 06:53:13;;;;;;;70.60;36.50;;;;;;;4.97;50.81;100622.56;233209;1217;138979;-60
2022/03/23 06:58:16;;;;;;;65.90;35.90;;;;;;;5.23;50.76;100617.44;233398;1217;139626;-58
2022/03/23 07:03:19;;;;;;;68.60;35.90;;;;;;;5.53;50.89;100622.42;233392;1217;139518;-60
2022/03/23 07:13:44;;;;;;;79.90;36.50;;;;;;;6.22;50.60;100614.06;233249;1218;139181;-58
2022/03/23 07:18:49;;;;;;;78.70;38.30;;;;;;;6.56;50.43;100609.85;233261;1217;139219;-58
2022/03/23 07:23:52;;;;;;;75.20;38.60;;;;;;;6.90;49.81;100612.33;233245;1217;139615;-60
2022/03/23 07:28:56;;;;;;;316.10;210.40;;;;;;;7.26;49.65;100605.86;232410;1218;139153;-60
2022/03/23 07:33:59;;;;;;;76.00;41.10;;;;;;;7.70;49.58;100597.04;232736;1219;139394;-58
2022/03/23 07:39:07;;;;;;;72.90;38.10;;;;;;;8.14;48.67;100597.45;233247;1217;139570;-58
2022/03/23 07:44:12;;;;;;;93.80;57.20;;;;;;;8.44;47.71;100594.54;233325;1217;139232;-61
2022/03/23 07:49:15;;;;;;;79.40;40.50;;;;;;;8.73;47.25;100590.02;233221;1218;139030;-60
2022/03/23 07:54:18;;;;;;;68.50;34.90;;;;;;;9.03;46.85;100583.80;233173;1219;138944;-59
2022/03/23 07:59:21;;;;;;;60.50;36.20;;;;;;;9.30;46.46;100582.25;232707;1218;139091;-59
2022/03/23 08:04:24;;;;;;;63.80;36.30;;;;;;;9.54;45.75;100575.44;233407;1217;139016;-59
2022/03/23 08:09:28;;;;;;;179.20;111.70;;;;;;;9.75;45.36;100571.54;233231;1217;140191;-59
2022/03/23 08:14:31;;;;;;;65.30;36.90;;;;;;;10.03;45.25;100568.61;233212;1217;140207;-56
2022/03/23 08:19:34;;;;;;;60.50;34.80;;;;;;;10.30;44.29;100568.38;233207;1217;139529;-57
2022/03/23 08:24:37;;;;;;;66.50;32.90;;;;;;;10.49;44.04;100568.40;233399;1217;139509;-60
2022/03/23 08:29:44;;;;;;;63.30;32.60;;;;;;;10.67;43.35;100560.63;233201;1217;139253;-58
2022/03/23 08:34:47;;;;;;;58.50;33.20;;;;;;;10.87;43.15;100551.14;233203;1218;139594;-59
2022/03/23 08:39:50;;;;;;;62.10;32.10;;;;;;;11.05;42.88;100549.05;233290;1217;139357;-59
2022/03/23 08:44:53;;;;;;;55.50;29.70;;;;;;;11.21;42.38;100553.57;233307;1217;139265;-59
2022/03/23 08:49:56;;;;;;;61.10;33.30;;;;;;;11.40;41.86;100550.13;233256;1217;139795;-60
2022/03/23 08:55:00;;;;;;;57.40;31.80;;;;;;;11.63;41.67;100549.33;233286;1217;139091;-60
2022/03/23 09:00:06;;;;;;;50.00;28.70;;;;;;;11.87;41.17;100547.27;233452;1217;139163;-59
2022/03/23 09:05:14;;;;;;;54.90;29.30;;;;;;;12.09;40.60;100541.52;233247;1217;141109;-59
2022/03/23 09:10:18;;;;;;;43.40;23.80;;;;;;;12.29;40.32;100536.70;233196;1219;140538;-57
2022/03/23 09:15:23;;;;;;;52.60;28.50;;;;;;;12.49;39.93;100533.82;233247;1217;139945;-55
2022/03/23 09:20:28;;;;;;;40.50;22.60;;;;;;;12.75;39.47;100531.73;233212;1218;139424;-55
2022/03/23 09:25:31;;;;;;;42.10;23.10;;;;;;;12.98;38.67;100537.95;233176;1218;140343;-57
2022/03/23 09:30:34;;;;;;;243.40;151.30;;;;;;;13.23;38.80;100523.75;233287;1218;139515;-62
2022/03/23 09:35:37;;;;;;;57.20;35.10;;;;;;;13.59;38.14;100520.34;232828;1218;139813;-59
2022/03/23 09:40:41;;;;;;;68.30;34.90;;;;;;;14.31;39.52;100507.47;233190;1217;139370;-58
2022/03/23 09:50:51;;;;;;;59.20;37.60;;;;;;;16.40;38.19;100491.27;233210;1218;139078;-59
2022/03/23 09:55:54;;;;;;;35.60;18.60;;;;;;;16.50;36.63;100483.80;233160;1217;139469;-59
2022/03/23 10:00:57;;;;;;;40.20;24.80;;;;;;;16.93;36.95;100477.64;233281;1217;140356;-59
2022/03/23 10:06:34;;;;;;;32.60;19.60;;;;;;;17.31;36.70;100462.63;233168;1218;139806;-59
2022/03/23 10:12:14;;;;;;;53.20;32.20;;;;;;;17.62;36.09;100458.68;233088;1219;139823;-59
2022/03/23 10:17:41;;;;;;;59.90;40.50;;;;;;;18.07;35.86;100451.65;233174;1219;139313;-59
2022/03/23 10:22:52;;;;;;;42.60;26.00;;;;;;;18.30;34.46;100442.84;233120;1217;139864;-58
2022/03/23 10:27:55;;;;;;;34.20;22.00;;;;;;;18.42;34.27;100433.67;233281;1217;139516;-59
2022/03/23 10:32:58;;;;;;;22.20;13.60;;;;;;;18.63;33.64;100425.84;233239;1218;140049;-59
2022/03/23 10:38:17;;;;;;;25.20;14.90;;;;;;;18.85;33.29;100415.80;233196;1220;139619;-59
2022/03/23 10:43:34;;;;;;;47.10;15.90;;;;;;;19.18;32.46;100407.44;233220;1217;139246;-58
2022/03/23 10:48:50;;;;;;;20.30;10.80;;;;;;;19.30;31.81;100403.08;233145;1217;139461;-58
2022/03/23 10:53:55;;;;;;;19.10;10.10;;;;;;;19.41;31.21;100395.37;233079;1217;140175;-58
2022/03/23 10:59:32;;;;;;;20.70;10.20;;;;;;;19.48;30.32;100389.66;233168;1217;139728;-58
2022/03/23 11:04:34;;;;;;;18.40;10.00;;;;;;;19.56;30.32;100381.06;233070;1220;139607;-58
2022/03/23 11:20:46;;;;;;;25.70;14.70;;;;;;;19.82;29.13;100355.11;233452;1217;139608;-58
2022/03/23 11:25:51;;;;;;;17.90;9.70;;;;;;;19.97;28.72;100346.02;233169;1217;140435;-59
2022/03/23 11:31:09;;;;;;;15.70;7.90;;;;;;;20.04;27.68;100338.38;233201;1219;141937;-59
2022/03/23 11:36:12;;;;;;;23.10;8.70;;;;;;;20.10;27.35;100324.05;233078;1218;139365;-58
2022/03/23 11:41:16;;;;;;;12.40;7.40;;;;;;;20.24;27.43;100313.55;233248;1217;139899;-58
2022/03/23 11:46:22;;;;;;;27.90;9.40;;;;;;;20.34;26.64;100301.71;233214;1217;138641;-57
2022/03/23 11:51:50;;;;;;;36.90;19.30;;;;;;;20.51;26.69;100293.27;233120;1217;139642;-58
2022/03/23 11:56:56;;;;;;;12.30;6.80;;;;;;;20.73;25.84;100282.46;233120;1219;140126;-57
2022/03/23 12:01:59;;;;;;;;;;;;;;;20.90;25.27;100273.59;233257;1217;139683;-59
2022/03/23 12:07:04;;;;;;;11.40;5.10;;;;;;;21.14;24.66;100270.09;233304;1216;125418;-59
2022/03/23 12:12:13;;;;;;;;;;;;;;;21.43;23.68;100260.17;233054;1217;139724;-57
2022/03/23 12:17:17;;;;;;;8.40;4.40;;;;;;;21.68;22.86;100250.96;233118;1217;125631;-58
2022/03/23 12:22:33;;;;;;;8.80;3.80;;;;;;;21.93;22.35;100246.52;233240;1220;139333;-56
2022/03/23 12:27:51;;;;;;;6.90;3.30;;;;;;;22.19;21.97;100235.67;233107;1219;140478;-59
2022/03/23 12:32:57;;;;;;;6.50;3.60;;;;;;;22.35;21.72;100223.13;233068;1219;140069;-60
2022/03/23 12:38:02;;;;;;;16.50;11.10;;;;;;;22.42;21.37;100217.30;233112;1217;139031;-59
2022/03/23 12:43:06;;;;;;;6.10;5.10;;;;;;;22.38;21.33;100208.59;233175;1217;139625;-58
2022/03/23 12:58:56;;;;;;;6.20;4.20;;;;;;;22.50;20.86;100188.52;233165;1218;139368;-58
2022/03/23 13:04:00;;;;;;;6.50;3.90;;;;;;;22.60;20.87;100176.91;233294;1217;138952;-58
2022/03/23 13:09:09;;;;;;;6.50;4.20;;;;;;;22.79;20.23;100180.00;233039;1220;139767;-58
2022/03/23 13:14:14;;;;;;;11.80;5.30;;;;;;;22.91;20.05;100171.26;233241;1218;139276;-57
2022/03/23 13:19:19;;;;;;;96.60;84.80;;;;;;;23.16;19.84;100165.79;233182;1217;139460;-58
2022/03/23 13:24:25;;;;;;;11.30;8.20;;;;;;;23.42;19.85;100154.80;233111;1217;139577;-55
2022/03/23 13:29:28;;;;;;;13.80;7.50;;;;;;;23.67;19.50;100152.34;233023;1220;139069;-56
2022/03/23 13:34:35;;;;;;;10.70;6.10;;;;;;;23.88;19.50;100137.17;233303;1217;139383;-57
2022/03/23 13:39:47;;;;;;;10.60;5.70;;;;;;;24.12;19.07;100137.15;233173;1217;139313;-57
2022/03/23 13:44:55;;;;;;;14.40;6.00;;;;;;;24.24;18.82;100129.85;233241;1217;139636;-57
2022/03/23 13:49:59;;;;;;;10.20;5.30;;;;;;;24.45;18.60;100134.33;233102;1217;140169;-57
2022/03/23 13:55:04;;;;;;;8.40;5.10;;;;;;;24.60;18.46;100121.02;232348;1217;139489;-57
2022/03/23 14:00:27;;;;;;;62.90;49.60;;;;;;;24.68;18.34;100111.45;233010;1219;141231;-57
2022/03/23 14:05:32;;;;;;;12.00;7.20;;;;;;;24.52;18.08;100103.13;233117;1217;140154;-57
2022/03/23 14:10:37;;;;;;;56.50;39.40;;;;;;;24.15;18.03;100102.53;233303;1217;140319;-58
2022/03/23 14:16:01;;;;;;;11.80;8.10;;;;;;;23.76;18.31;100101.25;233037;1217;139986;-58
2022/03/23 14:21:06;;;;;;;7.20;4.60;;;;;;;23.23;17.72;100090.81;233199;1217;139545;-58
2022/03/23 14:26:32;;;;;;;10.40;4.40;;;;;;;22.82;17.23;100083.98;233177;1217;139313;-59
2022/03/23 14:31:41;;;;;;;5.90;4.10;;;;;;;22.45;16.83;100077.91;233091;1219;138781;-59
2022/03/23 14:36:45;;;;;;;29.40;21.10;;;;;;;22.14;16.70;100064.40;233116;1217;141118;-58
2022/03/23 14:41:58;;;;;;;10.30;5.90;;;;;;;21.94;16.90;100059.19;232995;1217;139319;-59
2022/03/23 14:47:02;;;;;;;11.20;5.20;;;;;;;21.75;16.80;100052.17;233039;1217;139277;-59
2022/03/23 14:52:16;;;;;;;10.40;5.60;;;;;;;21.59;16.78;100044.05;233392;1217;139150;-58
2022/03/23 14:57:19;;;;;;;19.20;13.40;;;;;;;21.45;16.69;100041.27;233151;1217;139347;-58
2022/03/23 15:02:23;;;;;;;8.20;4.70;;;;;;;21.32;16.53;100033.10;233016;1217;138927;-58
2022/03/23 15:18:10;;;;;;;63.00;46.40;;;;;;;20.94;16.43;100014.88;232974;1217;139163;-58
2022/03/23 15:23:13;;;;;;;14.20;6.00;;;;;;;20.85;16.36;100011.23;233084;1217;142376;-59
2022/03/23 15:28:16;;;;;;;9.50;4.90;;;;;;;20.76;16.01;100006.41;233108;1219;139326;-60
2022/03/23 15:33:20;;;;;;;9.80;5.40;;;;;;;20.66;16.03;100000.44;233031;1217;139040;-59
2022/03/23 15:38:23;;;;;;;11.10;5.40;;;;;;;20.57;16.10;99996.36;232920;1219;139217;-59
2022/03/23 15:43:28;;;;;;;8.90;5.30;;;;;;;20.50;16.13;99993.17;233083;1217;139163;-59
2022/03/23 15:48:33;;;;;;;9.30;5.00;;;;;;;20.44;16.04;99994.41;233047;1217;139229;-59
2022/03/23 15:53:40;;;;;;;14.90;6.30;;;;;;;20.37;15.97;99985.43;232928;1219;139255;-58
2022/03/23 15:58:50;;;;;;;18.30;9.40;;;;;;;20.31;16.02;99984.92;233055;1217;141130;-60
2022/03/23 16:03:53;;;;;;;14.20;6.20;;;;;;;20.25;15.93;99984.33;233248;1217;139061;-59
2022/03/23 16:08:56;;;;;;;14.20;6.10;;;;;;;20.18;15.92;99980.64;233194;1217;139145;-59
2022/03/23 16:14:00;;;;;;;12.10;5.90;;;;;;;20.13;16.01;99987.02;233053;1217;139337;-58
2022/03/23 16:19:03;;;;;;;80.20;57.70;;;;;;;20.05;15.91;99977.65;233065;1217;139566;-57
2022/03/23 16:24:06;;;;;;;16.20;6.50;;;;;;;19.98;15.80;99980.40;233073;1217;140119;-57
2022/03/23 16:29:09;;;;;;;10.70;5.20;;;;;;;19.91;15.70;99986.61;233049;1217;139183;-58
2022/03/23 16:34:12;;;;;;;13.70;4.70;;;;;;;19.82;15.58;99979.95;232972;1217;139522;-58
2022/03/23 16:39:16;;;;;;;10.50;4.70;;;;;;;19.73;15.49;99977.16;233145;1217;139141;-59
2022/03/23 16:44:22;;;;;;;7.70;3.80;;;;;;;19.65;15.24;99980.48;233140;1217;139309;-58
2022/03/23 16:49:25;;;;;;;11.70;4.30;;;;;;;19.54;15.14;99973.99;233131;1217;139062;-59
2022/03/23 16:54:29;;;;;;;8.20;4.10;;;;;;;19.44;15.14;99977.23;233031;1219;138956;-58
2022/03/23 16:59:33;;;;;;;12.60;4.90;;;;;;;19.33;15.01;99976.81;233088;1217;138714;-59
2022/03/23 17:15:45;;;;;;;;;;;;;;;19.01;15.20;99978.84;234319;1218;107730;-58
2022/03/23 17:20:48;;;;;;;21.60;6.90;;;;;;;18.75;15.43;99976.35;234250;1218;96053;-57
2022/03/23 17:25:51;;;;;;;31.50;7.40;;;;;;;18.49;15.96;99983.54;233526;1217;139016;-59
2022/03/23 17:30:54;;;;;;;31.40;6.60;;;;;;;18.23;16.12;99986.08;233208;1217;139077;-59
2022/03/23 17:36:01;;;;;;;13.60;6.50;;;;;;;18.05;16.23;99988.65;232790;1218;140955;-59
2022/03/23 17:41:04;;;;;;;28.80;7.60;;;;;;;17.96;16.17;99985.52;233197;1218;139570;-59
2022/03/23 17:46:07;;;;;;;350.80;268.30;;;;;;;17.92;16.37;99990.86;233075;1217;139496;-59
2022/03/23 17:51:10;;;;;;;29.30;12.00;;;;;;;17.91;16.40;99988.94;233120;1217;141781;-59
2022/03/23 17:56:13;;;;;;;42.10;9.80;;;;;;;17.85;16.76;99990.14;233093;1218;138903;-61
2022/03/23 18:01:17;;;;;;;48.40;9.70;;;;;;;17.59;17.42;99990.80;233127;1217;139486;-61
2022/03/23 18:06:20;;;;;;;25.90;8.20;;;;;;;17.28;17.35;99989.28;233199;1217;139761;-61
2022/03/23 18:11:24;;;;;;;40.90;9.70;;;;;;;17.09;17.53;99990.83;233074;1217;142217;-62
2022/03/23 18:16:27;;;;;;;32.90;9.00;;;;;;;16.89;17.69;99990.35;233304;1217;139835;-62
2022/03/23 18:21:32;;;;;;;29.70;9.00;;;;;;;16.62;17.86;99987.73;233033;1217;139366;-61
2022/03/23 18:26:35;;;;;;;31.40;9.60;;;;;;;16.30;18.25;99992.59;233093;1218;139002;-62
2022/03/23 18:31:38;;;;;;;41.60;9.10;;;;;;;16.00;19.38;99990.89;233034;1217;143201;-62
2022/03/23 18:36:41;;;;;;;37.60;10.50;;;;;;;15.66;19.74;99988.36;233051;1217;139231;-62
2022/03/23 18:41:45;;;;;;;37.90;10.30;;;;;;;15.38;19.95;99986.84;233153;1217;139215;-61
2022/03/23 18:46:48;;;;;;;31.70;12.40;;;;;;;15.14;20.19;99987.55;233370;1217;139070;-62
2022/03/23 18:51:51;;;;;;;37.00;13.40;;;;;;;14.94;20.29;99985.27;233187;1217;139550;-61
2022/03/23 18:56:54;;;;;;;35.30;16.50;;;;;;;14.76;20.58;99985.34;233071;1219;139060;-62
2022/03/23 19:01:57;;;;;;;47.30;13.40;;;;;;;14.74;20.21;99987.77;233104;1219;141709;-62
2022/03/23 19:07:00;;;;;;;37.40;14.20;;;;;;;14.66;21.04;99982.59;233108;1217;140192;-64
2022/03/23 19:12:04;;;;;;;44.40;14.80;;;;;;;14.45;21.44;99990.15;233290;1217;140678;-63
2022/03/23 19:17:08;;;;;;;44.60;15.10;;;;;;;14.25;21.62;99995.36;233258;1217;139528;-62
2022/03/23 19:22:12;;;;;;;43.50;14.70;;;;;;;14.00;22.12;99989.52;233158;1217;139166;-62
2022/03/23 19:27:17;;;;;;;46.90;15.40;;;;;;;13.85;22.32;99997.09;233109;1219;139733;-62
2022/03/23 19:32:20;;;;;;;47.30;16.70;;;;;;;13.63;22.28;100000.85;233155;1217;139523;-62
2022/03/23 19:37:24;;;;;;;42.40;16.00;;;;;;;13.44;23.01;100002.34;233103;1217;139913;-62
2022/03/23 19:42:27;;;;;;;47.50;18.20;;;;;;;13.25;23.24;99998.77;233083;1217;139634;-61
2022/03/23 19:47:30;;;;;;;56.40;16.50;;;;;;;13.06;23.63;99996.83;233123;1217;140790;-61
2022/03/23 19:52:33;;;;;;;40.00;16.40;;;;;;;12.87;24.17;99993.25;233337;1217;139219;-61
2022/03/23 19:57:36;;;;;;;48.00;17.00;;;;;;;12.72;23.98;99992.67;233089;1217;140437;-60
2022/03/23 20:02:39;;;;;;;80.70;41.90;;;;;;;12.69;24.83;99993.77;232943;1217;139116;-61
2022/03/23 20:07:43;;;;;;;55.00;19.40;;;;;;;12.77;25.15;99987.23;233058;1217;140508;-62
2022/03/23 20:12:46;;;;;;;66.90;21.70;;;;;;;12.66;24.97;99993.54;233168;1218;140654;-61
2022/03/23 20:17:50;;;;;;;61.30;20.10;;;;;;;12.55;24.76;99994.85;233188;1217;139443;-61
2022/03/23 20:22:54;;;;;;;48.90;20.10;;;;;;;12.44;25.02;99993.67;232992;1218;139458;-60
2022/03/23 20:27:57;;;;;;;49.30;21.00;;;;;;;12.47;24.60;99989.77;233191;1218;138970;-59
2022/03/23 20:33:02;;;;;;;52.00;24.90;;;;;;;12.69;24.34;99992.33;233173;1217;139215;-61
2022/03/23 20:38:06;;;;;;;60.90;22.30;;;;;;;12.90;24.32;99997.56;233129;1217;141130;-59
2022/03/23 20:43:09;;;;;;;58.50;25.60;;;;;;;12.92;24.56;99992.11;233198;1219;139224;-59
2022/03/23 20:48:15;;;;;;;62.70;29.20;;;;;;;13.00;24.35;99990.23;233039;1217;140840;-59
2022/03/23 20:53:20;;;;;;;60.60;29.30;;;;;;;13.12;24.12;99986.87;233239;1217;139220;-59
2022/03/23 20:58:24;;;;;;;57.90;29.00;;;;;;;13.19;23.84;99986.13;233078;1217;139361;-58
2022/03/23 21:03:27;;;;;;;60.30;30.90;;;;;;;13.26;23.89;99988.42;233120;1217;139614;-60
2022/03/23 21:08:36;;;;;;;60.50;31.30;;;;;;;13.30;23.68;99990.12;233117;1218;139203;-60
2022/03/23 21:13:43;;;;;;;56.90;30.20;;;;;;;13.32;23.40;99988.98;233082;1219;140013;-59
2022/03/23 21:18:46;;;;;;;61.20;31.40;;;;;;;13.33;23.25;99986.22;233120;1217;139842;-58
2022/03/23 21:23:49;;;;;;;63.20;32.70;;;;;;;13.33;23.51;99987.46;233109;1217;138921;-60
2022/03/23 21:28:53;;;;;;;64.00;33.10;;;;;;;13.30;23.19;99983.91;233263;1218;140879;-60
2022/03/23 21:33:56;;;;;;;69.00;36.90;;;;;;;13.26;23.26;99981.80;233104;1217;139329;-60
2022/03/23 21:38:59;;;;;;;68.70;35.10;;;;;;;13.25;23.15;99980.05;233141;1218;139482;-61
2022/03/23 21:44:03;;;;;;;68.10;35.70;;;;;;;13.26;23.41;99974.16;233200;1217;140185;-62
2022/03/23 21:49:06;;;;;;;63.50;35.50;;;;;;;13.28;23.13;99966.58;233228;1217;142613;-62
2022/03/23 21:54:09;;;;;;;66.50;35.40;;;;;;;13.30;23.43;99961.07;233156;1217;139234;-62
2022/03/23 21:59:12;;;;;;;70.10;38.20;;;;;;;13.32;23.48;99960.63;233363;1217;139515;-58
2022/03/23 22:04:16;;;;;;;67.90;35.60;;;;;;;13.25;23.36;99964.21;233401;1217;139489;-60
2022/03/23 22:09:20;;;;;;;71.50;35.80;;;;;;;13.07;24.20;99959.21;233423;1218;140289;-61
2022/03/23 22:14:23;;;;;;;73.00;37.00;;;;;;;12.82;23.88;99952.23;233206;1217;140200;-59
2022/03/23 22:19:26;;;;;;;79.50;39.20;;;;;;;12.76;24.10;99942.03;233183;1217;139177;-59
2022/03/23 22:24:29;;;;;;;76.80;38.50;;;;;;;12.73;24.02;99941.85;233132;1217;139097;-60
2022/03/23 22:29:32;;;;;;;76.30;38.80;;;;;;;12.62;23.93;99937.85;233181;1217;140227;-61
2022/03/23 22:34:37;;;;;;;77.30;38.90;;;;;;;12.46;24.20;99933.95;233304;1217;140413;-60
2022/03/23 22:39:41;;;;;;;76.10;38.60;;;;;;;12.37;23.84;99929.30;233173;1218;139582;-59
2022/03/23 22:44:44;;;;;;;71.60;36.80;;;;;;;12.32;24.11;99923.52;233168;1217;139058;-59
2022/03/23 22:49:47;;;;;;;69.50;34.20;;;;;;;12.28;24.13;99924.60;233182;1217;140748;-60
2022/03/23 22:54:52;;;;;;;68.90;34.00;;;;;;;12.25;23.76;99926.55;233140;1217;139274;-58
2022/03/23 22:59:55;;;;;;;76.40;37.70;;;;;;;12.24;24.20;99933.55;233135;1217;139400;-58
2022/03/23 23:04:58;;;;;;;83.50;43.40;;;;;;;12.05;24.97;99938.48;233377;1217;139637;-59
2022/03/23 23:10:02;;;;;;;82.50;44.20;;;;;;;11.67;25.74;99940.31;233159;1217;139254;-62
2022/03/23 23:15:07;;;;;;;91.10;44.80;;;;;;;11.20;26.21;99938.43;233414;1218;139696;-60
2022/03/23 23:20:12;;;;;;;93.90;44.90;;;;;;;10.82;26.75;99944.39;233168;1217;139047;-59
2022/03/23 23:25:15;;;;;;;92.80;48.10;;;;;;;10.48;27.79;99952.05;233179;1217;139811;-59
2022/03/23 23:30:19;;;;;;;88.30;43.80;;;;;;;10.13;28.11;99946.20;233223;1218;139248;-59
2022/03/23 23:35:23;;;;;;;73.20;38.20;;;;;;;9.89;28.31;99940.16;233305;1217;139204;-58
2022/03/23 23:40:26;;;;;;;83.70;40.60;;;;;;;9.89;28.73;99943.88;233164;1217;139590;-58
2022/03/23 23:45:29;;;;;;;81.10;42.70;;;;;;;9.74;29.25;99951.65;233241;1217;138929;-58
2022/03/23 23:50:32;;;;;;;76.40;39.90;;;;;;;9.54;29.42;99948.11;233283;1217;140119;-57
2022/03/23 23:55:35;;;;;;;92.30;44.30;;;;;;;9.33;29.80;99944.23;233246;1217;208280;-56
